createdAt,value
2022-09-21T03:00:40.330Z,2.10
2022-09-21T03:03:17.995Z,2.50
2022-09-21T03:05:47.732Z,2.35
2022-09-21T03:08:15.766Z,2.25
2022-09-21T03:10:43.640Z,2.50
2022-09-21T03:13:11.706Z,2.55
2022-09-21T03:15:41.775Z,2.35
2022-09-21T03:18:11.261Z,2.35
2022-09-21T03:20:40.251Z,2.53
2022-09-21T03:23:08.101Z,2.58
2022-09-21T03:25:35.997Z,2.35
2022-09-21T03:28:04.027Z,2.35
2022-09-21T03:30:32.148Z,2.58
2022-09-21T03:33:01.286Z,2.45
2022-09-21T03:35:29.092Z,2.35
2022-09-21T03:37:57.867Z,2.47
2022-09-21T03:40:27.316Z,2.70
2022-09-21T03:42:55.845Z,2.65
2022-09-21T03:45:24.722Z,2.55
2022-09-21T03:47:55.634Z,3.33
2022-09-21T03:50:24.897Z,4.13
2022-09-21T03:52:52.814Z,3.47
2022-09-21T03:55:21.314Z,2.75
2022-09-21T03:57:49.405Z,2.42
2022-09-21T04:00:17.718Z,2.70
2022-09-21T04:02:45.739Z,2.50
2022-09-21T04:05:15.566Z,2.03
2022-09-21T04:07:46.600Z,2.47
2022-09-21T04:10:16.378Z,2.30
2022-09-21T04:12:45.877Z,2.50
2022-09-21T04:15:15.116Z,2.80
2022-09-21T04:17:43.039Z,2.70
2022-09-21T04:20:11.133Z,2.65
2022-09-21T04:22:43.329Z,2.90
2022-09-21T04:25:13.166Z,3.42
2022-09-21T04:27:41.677Z,3.05
2022-09-21T04:30:11.564Z,2.70
2022-09-21T04:32:39.389Z,2.97
2022-09-21T04:35:07.739Z,3.53
2022-09-21T04:37:35.550Z,3.58
2022-09-21T04:40:04.131Z,3.50
2022-09-21T04:42:33.549Z,3.70
2022-09-21T04:45:01.414Z,3.33
2022-09-21T04:47:30.972Z,6.50
2022-09-21T04:49:58.795Z,5.90
2022-09-21T04:52:26.642Z,4.97
2022-09-21T04:54:54.457Z,4.18
2022-09-21T04:57:22.291Z,3.40
2022-09-21T04:59:51.455Z,4.03
2022-09-21T05:02:19.279Z,3.78
2022-09-21T05:04:50.846Z,4.60
2022-09-21T05:07:19.023Z,5.47
2022-09-21T05:10:03.946Z,4.45
2022-09-21T05:12:32.527Z,4.22
2022-09-21T05:15:01.679Z,4.10
2022-09-21T05:17:30.681Z,4.00
2022-09-21T05:19:58.496Z,4.97
2022-09-21T05:22:26.297Z,4.27
2022-09-21T05:24:54.093Z,4.73
2022-09-21T05:27:21.947Z,5.20
2022-09-21T05:29:50.418Z,4.47
2022-09-21T05:32:25.526Z,5.88
2022-09-21T05:35:02.206Z,5.93
2022-09-21T05:37:45.271Z,5.95
2022-09-21T05:40:14.214Z,5.85
2022-09-21T05:42:42.597Z,6.32
2022-09-21T05:45:15.198Z,6.13
2022-09-21T05:47:55.958Z,5.90
2022-09-21T05:50:41.087Z,5.75
2022-09-21T05:53:33.702Z,5.47
2022-09-21T05:56:05.105Z,5.68
2022-09-21T05:58:42.949Z,5.40
2022-09-21T06:01:21.718Z,5.40
2022-09-21T06:03:51.579Z,5.95
2022-09-21T06:06:20.051Z,5.25
2022-09-21T06:08:47.996Z,5.93
2022-09-21T06:11:16.192Z,4.88
2022-09-21T06:13:44.071Z,4.75
2022-09-21T06:16:12.480Z,5.00
2022-09-21T06:18:41.123Z,5.00
2022-09-21T06:21:10.601Z,5.10
2022-09-21T06:23:38.783Z,4.70
2022-09-21T06:26:06.818Z,4.55
2022-09-21T06:28:34.650Z,4.70
2022-09-21T06:31:02.522Z,4.90
2022-09-21T06:33:30.397Z,5.00
2022-09-21T06:35:59.448Z,4.93
2022-09-21T06:38:30.034Z,5.67
2022-09-21T06:41:03.375Z,5.50
2022-09-21T06:43:31.791Z,5.97
2022-09-21T06:46:01.457Z,5.90
2022-09-21T06:48:30.794Z,5.73
2022-09-21T06:50:59.475Z,5.55
2022-09-21T06:53:29.609Z,5.97
2022-09-21T06:56:02.682Z,5.93
2022-09-21T06:58:31.191Z,5.88
2022-09-21T07:00:59.267Z,5.70
2022-09-21T07:03:27.239Z,5.72
2022-09-21T07:05:55.418Z,6.43
2022-09-21T07:11:12.964Z,6.28
2022-09-21T07:13:42.463Z,6.90
2022-09-21T07:16:10.709Z,6.22
2022-09-21T07:18:43.406Z,6.10
2022-09-21T07:21:13.079Z,6.10
2022-09-21T07:23:40.947Z,6.40
2022-09-21T07:26:10.533Z,6.53
2022-09-21T07:28:40.354Z,6.03
2022-09-21T07:31:13.924Z,6.60
2022-09-21T07:33:42.409Z,6.07
2022-09-21T07:36:11.229Z,6.30
2022-09-21T07:38:40.351Z,6.45
2022-09-21T07:41:08.554Z,6.63
2022-09-21T07:43:39.237Z,6.30
2022-09-21T07:46:09.571Z,7.05
2022-09-21T07:48:37.646Z,6.70
2022-09-21T07:51:07.536Z,7.20
2022-09-21T07:53:35.729Z,7.30
2022-09-21T07:56:04.759Z,7.53
2022-09-21T07:58:53.478Z,7.45
2022-09-21T08:01:23.364Z,7.47
2022-09-21T08:03:51.356Z,6.95
2022-09-21T08:06:19.589Z,8.27
2022-09-21T08:08:48.309Z,7.35
2022-09-21T08:11:17.067Z,7.13
2022-09-21T08:13:45.064Z,7.80
2022-09-21T08:16:13.046Z,7.85
2022-09-21T08:18:43.638Z,7.28
2022-09-21T08:21:12.412Z,7.25
2022-09-21T08:23:42.842Z,8.32
2022-09-21T08:26:18.997Z,9.13
2022-09-21T08:28:49.744Z,8.18
2022-09-21T08:31:19.654Z,8.18
2022-09-21T08:33:50.082Z,8.60
2022-09-21T08:36:18.210Z,7.75
2022-09-21T08:38:46.698Z,8.38
2022-09-21T08:41:18.015Z,7.90
2022-09-21T08:43:50.007Z,7.97
2022-09-21T08:46:20.908Z,8.02
2022-09-21T08:48:55.305Z,8.27
2022-09-21T08:51:26.871Z,8.38
2022-09-21T08:53:58.693Z,7.68
2022-09-21T08:56:41.850Z,8.02
2022-09-21T08:59:16.587Z,7.97
2022-09-21T09:01:58.663Z,7.80
2022-09-21T09:04:51.094Z,7.38
2022-09-21T09:07:31.243Z,7.80
2022-09-21T09:10:20.891Z,7.35
2022-09-21T09:12:57.521Z,6.80
2022-09-21T09:15:42.635Z,6.97
2022-09-21T09:18:15.862Z,6.65
2022-09-21T09:20:47.618Z,5.93
2022-09-21T09:23:21.617Z,5.85
2022-09-21T09:25:52.192Z,6.07
2022-09-21T09:28:29.416Z,7.13
2022-09-21T09:31:03.492Z,6.82
2022-09-21T09:33:41.230Z,6.07
2022-09-21T09:36:13.706Z,6.90
2022-09-21T09:38:47.901Z,7.53
2022-09-21T09:41:42.175Z,6.70
2022-09-21T09:44:31.307Z,6.65
2022-09-21T09:47:07.497Z,5.93
2022-09-21T09:49:44.376Z,5.90
2022-09-21T09:52:16.601Z,5.07
2022-09-21T09:54:45.208Z,5.32
2022-09-21T09:57:14.700Z,5.38
2022-09-21T09:59:51.824Z,4.45
2022-09-21T10:02:23.428Z,3.97
2022-09-21T10:05:03.813Z,3.50
2022-09-21T10:07:38.402Z,3.90
2022-09-21T10:10:38.222Z,4.15
2022-09-21T10:13:21.064Z,3.80
2022-09-21T10:15:52.312Z,3.65
2022-09-21T10:18:23.358Z,3.03
2022-09-21T10:21:00.946Z,2.70
2022-09-21T10:23:31.946Z,2.53
2022-09-21T10:26:03.238Z,2.30
2022-09-21T10:28:32.228Z,2.08
2022-09-21T10:31:18.919Z,1.70
2022-09-21T10:33:51.134Z,1.83
2022-09-21T10:36:32.540Z,1.77
2022-09-21T10:39:23.499Z,1.90
2022-09-21T10:41:54.867Z,1.85
2022-09-21T10:44:26.639Z,1.90
2022-09-21T10:49:26.842Z,1.60
2022-09-21T10:51:58.135Z,1.80
2022-09-21T10:54:30.992Z,1.73
2022-09-21T10:57:02.903Z,1.65
2022-09-21T10:59:32.648Z,1.70
2022-09-21T11:02:02.156Z,1.30
2022-09-21T11:04:39.808Z,1.50
2022-09-21T11:07:17.253Z,1.48
2022-09-21T11:09:52.439Z,1.45
2022-09-21T11:12:44.219Z,1.45
2022-09-21T11:15:33.803Z,1.40
2022-09-21T11:18:07.204Z,1.30
2022-09-21T11:20:44.572Z,1.40
2022-09-21T11:23:24.195Z,1.20
2022-09-21T11:25:59.832Z,1.50
2022-09-21T11:28:31.820Z,1.23
2022-09-21T11:31:13.297Z,1.40
2022-09-21T11:34:04.449Z,1.48
2022-09-21T11:36:42.742Z,1.42
2022-09-21T11:39:19.568Z,1.40
2022-09-21T11:42:02.033Z,1.30
2022-09-21T11:44:49.180Z,1.05
2022-09-21T11:47:55.015Z,1.30
2022-09-21T11:50:35.672Z,1.00
2022-09-21T11:53:20.094Z,1.05
2022-09-21T11:56:14.448Z,1.10
2022-09-21T11:58:53.055Z,1.17
2022-09-21T12:01:40.088Z,1.33
2022-09-21T12:04:25.213Z,1.20
2022-09-21T12:07:06.894Z,1.10
2022-09-21T12:09:55.887Z,1.20
2022-09-21T12:12:30.870Z,1.00
2022-09-21T12:15:05.040Z,1.00
2022-09-21T12:17:45.372Z,1.00
2022-09-21T12:20:19.517Z,0.90
2022-09-21T12:22:50.907Z,0.82
2022-09-21T12:25:24.213Z,0.80
2022-09-21T12:27:54.901Z,1.05
2022-09-21T12:30:25.513Z,0.90
2022-09-21T12:32:58.773Z,1.05
2022-09-21T12:35:34.498Z,0.80
2022-09-21T12:38:10.087Z,0.73
2022-09-21T12:40:43.186Z,0.90
2022-09-21T12:43:21.391Z,1.10
2022-09-21T12:45:55.750Z,0.75
2022-09-21T12:48:31.708Z,0.70
2022-09-21T12:51:06.192Z,0.80
2022-09-21T12:53:38.792Z,0.80
2022-09-21T12:56:11.793Z,1.10
2022-09-21T12:58:50.657Z,0.70
2022-09-21T13:01:30.377Z,0.80
2022-09-21T13:04:23.280Z,0.88
2022-09-21T13:07:32.769Z,0.66
2022-09-21T13:10:02.094Z,0.95
2022-09-21T13:12:34.663Z,1.00
2022-09-21T13:15:06.330Z,0.63
2022-09-21T13:17:36.567Z,0.75
2022-09-21T13:20:08.273Z,0.75
2022-09-21T13:22:37.895Z,0.60
2022-09-21T13:25:09.340Z,0.80
2022-09-21T13:28:00.646Z,0.50
2022-09-21T13:30:35.184Z,0.63
2022-09-21T13:33:06.210Z,0.70
2022-09-21T13:36:02.140Z,0.80
2022-09-21T13:38:34.362Z,0.60
2022-09-21T13:41:03.996Z,0.60
2022-09-21T13:44:04.377Z,0.90
2022-09-21T13:47:01.680Z,0.93
2022-09-21T13:49:39.026Z,0.80
2022-09-21T13:52:18.474Z,0.90
2022-09-21T13:54:51.866Z,0.70
2022-09-21T13:57:24.757Z,0.70
2022-09-21T14:00:08.813Z,0.80
2022-09-21T14:02:45.977Z,0.82
2022-09-21T14:05:27.248Z,0.80
2022-09-21T14:07:57.341Z,0.80
2022-09-21T14:10:27.326Z,0.70
2022-09-21T14:12:55.306Z,0.75
2022-09-21T14:15:37.116Z,0.82
2022-09-21T14:18:37.057Z,0.90
2022-09-21T14:21:21.005Z,0.73
2022-09-21T14:24:20.880Z,0.63
2022-09-21T14:27:08.452Z,0.98
2022-09-21T14:29:45.745Z,0.80
2022-09-21T14:32:19.301Z,0.80
2022-09-21T14:34:49.689Z,0.85
2022-09-21T14:37:34.184Z,1.02
2022-09-21T14:40:05.830Z,0.90
2022-09-21T14:42:34.147Z,0.80
2022-09-21T14:45:03.633Z,0.90
2022-09-21T14:47:53.805Z,0.93
2022-09-21T14:50:31.073Z,0.77
2022-09-21T14:53:29.033Z,0.90
2022-09-21T14:56:10.146Z,0.70
2022-09-21T14:58:51.999Z,0.77
2022-09-21T15:01:41.399Z,0.80
2022-09-21T15:04:45.331Z,0.80
2022-09-21T15:07:44.425Z,0.70
2022-09-21T15:10:50.819Z,0.65
2022-09-21T15:13:58.341Z,0.65
2022-09-21T15:16:38.417Z,0.73
2022-09-21T15:19:22.770Z,0.80
2022-09-21T15:21:52.555Z,0.60
2022-09-21T15:24:24.831Z,0.43
2022-09-21T15:26:56.663Z,0.70
2022-09-21T15:29:25.792Z,0.73
2022-09-21T15:31:54.951Z,0.55
2022-09-21T15:34:23.966Z,0.60
2022-09-21T15:36:52.855Z,0.60
2022-09-21T15:39:26.554Z,0.60
2022-09-21T15:42:19.894Z,0.70
2022-09-21T15:44:50.492Z,0.50
2022-09-21T15:47:21.898Z,0.60
2022-09-21T15:49:50.865Z,1.00
2022-09-21T15:52:28.030Z,0.70
2022-09-21T15:55:00.659Z,0.70
2022-09-21T15:57:38.968Z,0.60
2022-09-21T16:00:18.736Z,0.73
2022-09-21T16:03:04.180Z,0.77
2022-09-21T16:05:35.016Z,0.63
2022-09-21T16:08:07.975Z,0.63
2022-09-21T16:10:41.119Z,0.88
2022-09-21T16:13:36.341Z,0.80
2022-09-21T16:16:06.282Z,0.90
2022-09-21T16:18:43.020Z,0.80
2022-09-21T16:21:27.611Z,0.60
2022-09-21T16:23:58.106Z,0.70
2022-09-21T16:26:29.569Z,0.70
2022-09-21T16:29:15.150Z,0.70
2022-09-21T16:31:47.554Z,0.57
2022-09-21T16:34:35.183Z,0.68
2022-09-21T16:37:03.477Z,0.50
2022-09-21T16:39:31.470Z,0.80
2022-09-21T16:42:03.945Z,0.70
2022-09-21T16:44:40.823Z,0.70
2022-09-21T16:47:14.769Z,0.82
2022-09-21T16:49:43.064Z,0.85
2022-09-21T16:52:10.964Z,0.82
2022-09-21T16:54:39.115Z,0.90
2022-09-21T16:57:07.624Z,1.00
2022-09-21T16:59:36.796Z,1.10
2022-09-21T17:02:05.909Z,0.90
2022-09-21T17:04:35.973Z,1.10
2022-09-21T17:07:05.138Z,1.30
2022-09-21T17:09:35.302Z,1.33
2022-09-21T17:12:04.289Z,1.70
2022-09-21T17:14:35.437Z,1.20
2022-09-21T17:17:08.546Z,1.48
2022-09-21T17:19:36.783Z,1.27
2022-09-21T17:22:06.798Z,1.30
2022-09-21T17:24:49.854Z,1.20
2022-09-21T17:27:20.012Z,2.33
2022-09-21T17:29:49.231Z,2.35
2022-09-21T17:32:20.708Z,2.78
2022-09-21T17:34:49.971Z,2.20
2022-09-21T17:37:17.801Z,1.60
2022-09-21T17:39:46.228Z,1.67
2022-09-21T17:42:18.888Z,1.58
2022-09-21T17:45:03.296Z,1.45
2022-09-21T17:47:33.950Z,1.50
2022-09-21T17:50:16.496Z,1.50
2022-09-21T17:53:03.212Z,1.23
2022-09-21T17:55:32.022Z,1.52
2022-09-21T17:58:29.269Z,1.50
2022-09-21T18:01:01.882Z,1.50
2022-09-21T18:03:35.715Z,1.25
2022-09-21T18:06:04.343Z,1.20
2022-09-21T18:08:35.421Z,1.48
2022-09-21T18:11:13.477Z,1.48
2022-09-21T18:13:52.079Z,1.40
2022-09-21T18:16:35.510Z,1.27
2022-09-21T18:19:25.125Z,1.27
2022-09-21T18:21:57.974Z,1.05
2022-09-21T18:24:31.066Z,1.05
2022-09-21T18:27:00.676Z,1.10
2022-09-21T18:29:40.765Z,1.20
2022-09-21T18:32:35.169Z,1.42
2022-09-21T18:35:19.421Z,1.50
2022-09-21T18:38:04.333Z,1.60
2022-09-21T18:40:40.245Z,1.70
2022-09-21T18:43:25.527Z,1.60
2022-09-21T18:46:01.781Z,1.38
2022-09-21T18:48:48.543Z,1.27
2022-09-21T18:51:27.120Z,1.20
2022-09-21T18:53:56.948Z,1.33
2022-09-21T18:56:26.089Z,1.33
2022-09-21T18:58:54.603Z,1.30
2022-09-21T19:01:23.783Z,1.17
2022-09-21T19:03:52.499Z,1.23
2022-09-21T19:06:36.954Z,1.30
2022-09-21T19:09:14.490Z,1.40
2022-09-21T19:11:48.412Z,2.58
2022-09-21T19:14:22.231Z,3.40
2022-09-21T19:17:05.635Z,3.83
2022-09-21T19:19:42.254Z,3.17
2022-09-21T19:22:16.439Z,2.90
2022-09-21T19:24:55.364Z,2.97
2022-09-21T19:27:32.053Z,3.20
2022-09-21T19:30:05.817Z,2.80
2022-09-21T19:32:39.095Z,2.45
2022-09-21T19:35:26.217Z,2.30
2022-09-21T19:37:56.771Z,2.30
2022-09-21T19:40:27.412Z,2.60
2022-09-21T19:43:18.849Z,2.50
2022-09-21T19:46:11.830Z,2.80
2022-09-21T19:48:43.343Z,2.38
2022-09-21T19:51:19.047Z,2.30
2022-09-21T19:54:12.591Z,2.10
2022-09-21T19:57:04.320Z,2.20
2022-09-21T19:59:44.650Z,2.30
2022-09-21T20:02:14.725Z,2.35
2022-09-21T20:04:50.632Z,2.30
2022-09-21T20:07:26.835Z,2.20
2022-09-21T20:10:12.239Z,2.67
2022-09-21T20:12:48.582Z,3.42
2022-09-21T20:15:20.448Z,2.90
2022-09-21T20:17:52.107Z,2.60
2022-09-21T20:20:23.892Z,2.97
2022-09-21T20:22:52.091Z,3.90
2022-09-21T20:25:24.460Z,3.58
2022-09-21T20:27:55.197Z,2.85
2022-09-21T20:30:26.004Z,2.70
2022-09-21T20:32:57.051Z,2.53
2022-09-21T20:35:27.615Z,2.55
2022-09-21T20:38:01.308Z,2.90
2022-09-21T20:40:32.536Z,2.80
2022-09-21T20:43:01.638Z,3.00
2022-09-21T20:45:30.459Z,3.22
2022-09-21T20:48:12.786Z,3.00
2022-09-21T20:50:41.599Z,3.10
2022-09-21T20:53:09.579Z,3.10
2022-09-21T20:55:39.414Z,3.15
2022-09-21T20:58:07.318Z,3.13
2022-09-21T21:00:35.486Z,2.70
2022-09-21T21:03:03.600Z,2.60
2022-09-21T21:05:31.667Z,2.40
2022-09-21T21:07:59.474Z,2.88
2022-09-21T21:10:27.333Z,2.40
2022-09-21T21:12:58.489Z,2.58
2022-09-21T21:15:26.665Z,2.30
2022-09-21T21:17:54.498Z,2.30
2022-09-21T21:20:22.625Z,2.40
2022-09-21T21:22:52.037Z,2.38
2022-09-21T21:25:19.857Z,2.20
2022-09-21T21:27:47.657Z,2.50
